Time;durP1;ratioP1;P1;durP2;ratioP2;P2;SDS_P1;SDS_P2;PMS_P1;PMS_P2;Temp;Humidity;BMP_temperature;BMP_pressure;BME280_temperature;BME280_humidity;BME280_pressure;Samples;Min_cycle;Max_cycle;Signal;HPM_P1;HPM_P2
2023/12/15 00:01:19;;;;;;;5.93;4.20;;;4.60;99.90;;;;;;5069179;28;20195;-71
2023/12/15 00:03:44;;;;;;;6.87;4.70;;;4.60;99.90;;;;;;5067826;28;20260;-72
2023/12/15 00:06:10;;;;;;;12.27;5.07;;;4.60;99.90;;;;;;5068964;28;20213;-70
2023/12/15 00:08:36;;;;;;;8.17;4.60;;;4.50;99.90;;;;;;5068376;28;20232;-71
2023/12/15 00:11:01;;;;;;;6.37;3.90;;;4.50;99.90;;;;;;5069286;28;20186;-71
2023/12/15 00:13:27;;;;;;;7.20;4.40;;;4.50;99.90;;;;;;5068780;28;20185;-72
2023/12/15 00:15:53;;;;;;;6.70;4.40;;;4.60;99.90;;;;;;5050547;28;20251;-71
2023/12/15 00:18:19;;;;;;;7.53;4.53;;;4.60;99.90;;;;;;5068572;28;20312;-72
2023/12/15 00:20:44;;;;;;;7.60;4.53;;;4.60;99.90;;;;;;5068895;28;20307;-72
2023/12/15 00:23:10;;;;;;;9.47;5.00;;;4.60;99.90;;;;;;5069453;28;20293;-72
2023/12/15 00:25:35;;;;;;;9.20;4.50;;;4.60;99.90;;;;;;5069162;28;20214;-74
2023/12/15 00:28:01;;;;;;;8.80;4.83;;;4.50;99.90;;;;;;5067812;28;20198;-73
2023/12/15 00:30:27;;;;;;;6.83;4.70;;;4.50;99.90;;;;;;5069197;28;20209;-72
2023/12/15 00:32:53;;;;;;;6.53;4.40;;;4.50;99.90;;;;;;5069456;28;20476;-72
2023/12/15 00:35:18;;;;;;;6.13;3.90;;;4.50;99.90;;;;;;5069385;28;20191;-72
2023/12/15 00:37:44;;;;;;;6.50;4.40;;;4.50;99.90;;;;;;5067885;28;20237;-72
2023/12/15 00:40:10;;;;;;;7.37;4.77;;;4.50;99.90;;;;;;5068160;28;20182;-72
2023/12/15 00:42:36;;;;;;;5.72;4.53;;;4.50;99.90;;;;;;5069323;28;20674;-72
2023/12/15 00:45:02;;;;;;;7.13;4.43;;;4.50;99.90;;;;;;5067821;28;20194;-72
2023/12/15 00:47:27;;;;;;;5.47;3.70;;;4.50;99.90;;;;;;5069086;28;20575;-72
2023/12/15 00:49:53;;;;;;;6.50;4.67;;;4.50;99.90;;;;;;5069120;28;20443;-71
2023/12/15 00:52:18;;;;;;;7.60;4.40;;;4.40;99.90;;;;;;5068747;28;20198;-72
2023/12/15 00:54:44;;;;;;;4.07;3.60;;;4.40;99.90;;;;;;5068640;28;20198;-70
2023/12/15 00:57:10;;;;;;;8.80;3.63;;;4.40;99.90;;;;;;5068788;28;20778;-72
2023/12/15 00:59:35;;;;;;;6.57;4.47;;;4.40;99.90;;;;;;5067391;28;20190;-72
2023/12/15 01:02:01;;;;;;;7.30;4.50;;;4.40;99.90;;;;;;5067184;28;20293;-72
2023/12/15 01:04:27;;;;;;;7.87;3.83;;;4.40;99.90;;;;;;5068796;28;20644;-70
2023/12/15 01:06:53;;;;;;;7.33;3.97;;;4.40;99.90;;;;;;5068414;28;20531;-71
2023/12/15 01:09:19;;;;;;;7.13;4.30;;;4.40;99.90;;;;;;5068630;28;20192;-71
2023/12/15 01:11:44;;;;;;;6.72;4.65;;;4.40;99.90;;;;;;5067453;28;20187;-72
2023/12/15 01:14:10;;;;;;;5.40;4.40;;;4.40;99.90;;;;;;5067049;28;20194;-71
2023/12/15 01:16:46;;;;;;;6.57;4.30;;;4.40;99.90;;;;;;5066839;28;20201;-72
2023/12/15 01:19:11;;;;;;;6.13;4.23;;;4.30;99.90;;;;;;5068946;28;20255;-71
2023/12/15 01:21:37;;;;;;;4.60;3.67;;;4.40;99.90;;;;;;5072232;28;20427;-71
2023/12/15 01:24:03;;;;;;;7.13;4.57;;;4.40;99.90;;;;;;5072101;28;20189;-72
2023/12/15 01:26:29;;;;;;;7.33;4.83;;;4.40;99.90;;;;;;5053743;28;20222;-71
2023/12/15 01:28:55;;;;;;;8.93;5.03;;;4.40;99.90;;;;;;5072121;28;20932;-71
2023/12/15 01:31:20;;;;;;;7.20;4.87;;;4.40;99.90;;;;;;5072367;28;20186;-71
2023/12/15 01:33:46;;;;;;;5.80;5.10;;;4.40;99.90;;;;;;5053870;28;20205;-71
2023/12/15 01:36:11;;;;;;;7.33;5.00;;;4.40;99.90;;;;;;5070512;28;20286;-71
2023/12/15 01:38:37;;;;;;;6.50;5.17;;;4.40;99.90;;;;;;5072045;28;20728;-71
2023/12/15 01:41:03;;;;;;;9.10;5.87;;;4.40;99.90;;;;;;5070477;28;20194;-71
2023/12/15 01:43:29;;;;;;;7.67;5.27;;;4.30;99.90;;;;;;5071730;28;20193;-71
2023/12/15 01:45:54;;;;;;;6.17;4.17;;;4.30;99.90;;;;;;5070024;28;20855;-71
2023/12/15 01:48:21;;;;;;;8.10;5.33;;;4.20;99.90;;;;;;5070092;28;20591;-71
2023/12/15 01:50:47;;;;;;;7.97;4.53;;;4.10;99.90;;;;;;5070099;28;20225;-72
2023/12/15 01:53:12;;;;;;;9.73;5.00;;;4.30;99.90;;;;;;5071673;28;20185;-71
2023/12/15 01:55:38;;;;;;;7.20;5.10;;;4.10;99.90;;;;;;5071458;28;20682;-71
2023/12/15 01:58:03;;;;;;;7.80;5.27;;;4.10;99.90;;;;;;5070345;28;20214;-71
2023/12/15 02:00:29;;;;;;;9.97;5.67;;;4.10;99.90;;;;;;5071398;28;20189;-72
2023/12/15 02:02:55;;;;;;;7.00;4.97;;;4.10;99.90;;;;;;5071328;28;20598;-72
2023/12/15 02:05:20;;;;;;;6.73;4.83;;;4.10;99.90;;;;;;5071271;28;20186;-72
2023/12/15 02:07:46;;;;;;;6.77;5.00;;;4.10;99.90;;;;;;5071395;28;20213;-71
2023/12/15 02:10:11;;;;;;;9.03;5.50;;;4.10;99.90;;;;;;5069907;28;20182;-72
2023/12/15 02:12:37;;;;;;;10.30;5.50;;;4.10;99.90;;;;;;5071142;28;20177;-70
2023/12/15 02:15:03;;;;;;;8.30;5.43;;;4.10;99.90;;;;;;5071205;28;20172;-72
2023/12/15 02:17:28;;;;;;;7.83;5.13;;;4.20;99.90;;;;;;5071108;28;20217;-70
2023/12/15 02:19:54;;;;;;;7.50;5.00;;;4.20;99.90;;;;;;5071232;28;20413;-72
2023/12/15 02:22:29;;;;;;;12.57;5.17;;;4.10;99.90;;;;;;5071030;28;20187;-72
2023/12/15 02:24:54;;;;;;;12.40;7.33;;;4.10;99.90;;;;;;5071064;28;20539;-71
2023/12/15 02:27:20;;;;;;;7.43;5.50;;;4.20;99.90;;;;;;5070816;28;20470;-71
2023/12/15 02:29:45;;;;;;;8.30;4.90;;;4.20;99.90;;;;;;5069148;28;20565;-71
2023/12/15 02:32:11;;;;;;;10.17;6.00;;;4.20;99.90;;;;;;5069299;28;20198;-72
2023/12/15 02:34:37;;;;;;;10.40;5.60;;;4.20;99.90;;;;;;5069573;28;20182;-71
2023/12/15 02:37:02;;;;;;;9.67;6.00;;;4.20;99.90;;;;;;5070919;28;20220;-72
2023/12/15 02:39:28;;;;;;;10.80;5.97;;;4.20;99.90;;;;;;5069627;28;20221;-72
2023/12/15 02:41:53;;;;;;;11.83;6.30;;;4.20;99.90;;;;;;5070765;28;20183;-73
2023/12/15 02:44:19;;;;;;;11.87;6.17;;;4.20;99.90;;;;;;5070630;28;20694;-72
2023/12/15 02:46:44;;;;;;;10.23;6.13;;;4.20;99.90;;;;;;5052326;28;20225;-72
2023/12/15 02:49:10;;;;;;;10.70;6.00;;;4.20;99.90;;;;;;5069359;28;20169;-71
2023/12/15 02:51:36;;;;;;;12.10;6.47;;;4.20;99.90;;;;;;5069282;28;20598;-72
2023/12/15 02:54:02;;;;;;;11.13;6.50;;;4.20;99.90;;;;;;5068917;28;20212;-72
2023/12/15 02:56:28;;;;;;;8.25;5.53;;;4.20;99.90;;;;;;5068902;28;20214;-72
2023/12/15 02:58:55;;;;;;;10.70;6.80;;;4.20;99.90;;;;;;5070652;28;20189;-70
2023/12/15 03:01:21;;;;;;;13.30;6.70;;;4.20;99.90;;;;;;5070512;28;20221;-71
2023/12/15 03:03:46;;;;;;;12.03;6.40;;;4.20;99.90;;;;;;5070553;28;20463;-72
2023/12/15 03:06:12;;;;;;;11.93;7.17;;;4.20;99.90;;;;;;5070092;28;20217;-72
2023/12/15 03:08:38;;;;;;;10.47;6.13;;;4.10;99.90;;;;;;5070285;28;20183;-72
2023/12/15 03:11:03;;;;;;;14.77;6.87;;;4.10;99.90;;;;;;5070339;28;20182;-72
2023/12/15 03:13:29;;;;;;;10.53;6.20;;;4.10;99.90;;;;;;5068632;28;20190;-72
2023/12/15 03:16:03;;;;;;;9.10;5.97;;;4.00;99.90;;;;;;5070214;28;20507;-72
2023/12/15 03:18:29;;;;;;;12.30;6.50;;;3.90;99.90;;;;;;5070314;28;20454;-71
2023/12/15 03:20:55;;;;;;;11.10;6.30;;;3.90;99.90;;;;;;5070509;28;21246;-71
2023/12/15 03:23:21;;;;;;;13.57;7.03;;;3.90;99.90;;;;;;5070421;28;20420;-71
2023/12/15 03:25:46;;;;;;;13.60;6.77;;;3.80;99.90;;;;;;5068952;28;20210;-71
2023/12/15 03:28:12;;;;;;;12.10;6.40;;;3.80;99.90;;;;;;5068887;28;20199;-72
2023/12/15 03:30:37;;;;;;;13.33;7.57;;;3.70;99.90;;;;;;5070663;28;20185;-72
2023/12/15 03:33:03;;;;;;;13.90;6.80;;;3.70;99.90;;;;;;5070711;28;20224;-72
2023/12/15 03:35:28;;;;;;;10.70;6.40;;;3.60;99.90;;;;;;5070603;28;20188;-71
2023/12/15 03:37:54;;;;;;;8.97;6.40;;;3.60;99.90;;;;;;5070476;28;20600;-71
2023/12/15 03:40:20;;;;;;;13.90;6.97;;;3.70;99.90;;;;;;5069062;28;20182;-72
2023/12/15 03:42:46;;;;;;;13.33;6.27;;;3.70;99.90;;;;;;5069495;28;20213;-71
2023/12/15 03:45:12;;;;;;;6.68;4.82;;;3.70;99.90;;;;;;5070440;28;20543;-72
2023/12/15 03:47:38;;;;;;;6.40;5.10;;;3.80;99.90;;;;;;5070343;28;21053;-72
2023/12/15 03:50:04;;;;;;;9.27;5.77;;;3.80;99.90;;;;;;5068803;28;20463;-72
2023/12/15 03:52:30;;;;;;;9.03;5.60;;;3.90;99.90;;;;;;5068619;28;20420;-72
2023/12/15 03:54:56;;;;;;;7.80;5.45;;;3.90;99.90;;;;;;5069401;28;20880;-72
2023/12/15 03:57:22;;;;;;;6.40;4.73;;;4.00;99.90;;;;;;5068413;28;20214;-71
2023/12/15 03:59:47;;;;;;;7.50;4.97;;;4.00;99.90;;;;;;5068183;28;20460;-72
2023/12/15 04:02:15;;;;;;;6.83;4.40;;;4.00;99.90;;;;;;5051489;28;20278;-72
2023/12/15 04:04:43;;;;;;;7.17;4.70;;;4.00;99.90;;;;;;5067905;28;20198;-71
2023/12/15 04:07:09;;;;;;;10.53;4.50;;;4.10;99.90;;;;;;5068244;28;21086;-71
2023/12/15 04:09:35;;;;;;;6.03;3.93;;;4.10;99.90;;;;;;5069453;28;20410;-71
2023/12/15 04:12:01;;;;;;;5.23;4.03;;;4.20;99.90;;;;;;5069289;28;20421;-72
2023/12/15 04:14:26;;;;;;;6.10;4.53;;;4.10;99.90;;;;;;5069293;28;20198;-71
2023/12/15 04:16:52;;;;;;;6.00;3.73;;;4.10;99.90;;;;;;5068870;28;20203;-72
2023/12/15 04:19:18;;;;;;;6.43;4.00;;;4.20;99.90;;;;;;5069105;28;20183;-71
2023/12/15 04:21:43;;;;;;;5.00;4.50;;;4.20;99.90;;;;;;5050952;28;20194;-71
2023/12/15 04:24:09;;;;;;;6.20;4.10;;;4.20;99.90;;;;;;5069693;28;20273;-71
2023/12/15 04:26:34;;;;;;;6.30;3.83;;;4.20;99.90;;;;;;5069845;28;20219;-71
2023/12/15 04:29:00;;;;;;;5.10;4.50;;;4.30;99.90;;;;;;5068968;28;20182;-72
2023/12/15 04:31:26;;;;;;;5.80;4.33;;;4.30;99.90;;;;;;5067712;28;20178;-72
2023/12/15 04:33:52;;;;;;;5.97;4.40;;;4.30;99.90;;;;;;5067302;28;20186;-72
2023/12/15 04:36:21;;;;;;;6.23;4.57;;;4.30;99.90;;;;;;5069549;28;20175;-72
2023/12/15 04:38:47;;;;;;;5.37;4.10;;;4.30;99.90;;;;;;5068970;28;20987;-73
2023/12/15 04:41:23;;;;;;;9.70;5.63;;;4.30;99.90;;;;;;5067607;28;20939;-72
2023/12/15 04:43:49;;;;;;;6.57;4.90;;;4.30;99.90;;;;;;5067982;28;20426;-73
2023/12/15 04:46:29;;;;;;;7.53;5.80;;;4.30;99.90;;;;;;5067924;28;20475;-72
2023/12/15 04:48:57;;;;;;;4.67;3.87;;;4.40;99.90;;;;;;5069775;28;20409;-73
2023/12/15 04:51:23;;;;;;;5.40;4.17;;;4.30;99.90;;;;;;5069701;28;20954;-73
2023/12/15 04:53:49;;;;;;;8.17;5.23;;;4.30;99.90;;;;;;5067884;28;20944;-72
2023/12/15 04:56:16;;;;;;;7.20;5.27;;;4.40;99.90;;;;;;5068439;28;20441;-73
2023/12/15 04:58:43;;;;;;;6.90;5.07;;;4.30;99.90;;;;;;5050392;28;20425;-72
2023/12/15 05:01:10;;;;;;;6.47;5.10;;;4.30;99.90;;;;;;5066515;28;20416;-73
2023/12/15 05:03:37;;;;;;;7.90;4.60;;;4.30;99.90;;;;;;5067780;28;20564;-73
2023/12/15 05:06:02;;;;;;;5.80;4.70;;;4.30;99.90;;;;;;5066169;28;20554;-72
2023/12/15 05:08:28;;;;;;;5.10;4.40;;;4.30;99.90;;;;;;5066366;28;20570;-73
2023/12/15 05:10:54;;;;;;;7.87;4.27;;;4.30;99.90;;;;;;5067987;28;20421;-73
2023/12/15 05:13:19;;;;;;;6.60;4.60;;;4.40;99.90;;;;;;5067240;28;20193;-73
2023/12/15 05:15:45;;;;;;;6.77;4.53;;;4.30;99.90;;;;;;5065659;28;20996;-73
2023/12/15 05:18:10;;;;;;;6.37;4.10;;;4.40;99.90;;;;;;5067134;28;20290;-72
2023/12/15 05:20:38;;;;;;;4.67;4.23;;;4.30;99.90;;;;;;5066026;28;20270;-73
2023/12/15 05:23:04;;;;;;;9.38;3.80;;;4.30;99.90;;;;;;5066851;28;20193;-72
2023/12/15 05:25:30;;;;;;;4.85;3.20;;;4.40;99.90;;;;;;5065470;28;20191;-73
2023/12/15 05:27:56;;;;;;;4.73;3.63;;;4.30;99.90;;;;;;5066761;28;20214;-72
2023/12/15 05:30:21;;;;;;;6.33;3.77;;;4.40;99.90;;;;;;5065857;28;20417;-72
2023/12/15 05:32:47;;;;;;;5.63;4.20;;;4.40;99.90;;;;;;5066769;28;20182;-72
2023/12/15 05:35:13;;;;;;;6.47;4.07;;;4.30;99.90;;;;;;5066698;28;20193;-72
2023/12/15 05:37:38;;;;;;;5.53;4.13;;;4.30;99.90;;;;;;5066662;28;20237;-73
2023/12/15 05:40:04;;;;;;;4.07;3.67;;;4.30;99.90;;;;;;5048924;28;20438;-72
2023/12/15 05:42:30;;;;;;;5.35;3.55;;;4.30;99.90;;;;;;5065024;28;20194;-73
2023/12/15 05:44:56;;;;;;;3.70;3.40;;;4.30;99.90;;;;;;5065013;28;20218;-73
2023/12/15 05:47:21;;;;;;;3.50;3.07;;;4.30;99.90;;;;;;5065117;28;20260;-73
2023/12/15 05:49:47;;;;;;;4.57;3.37;;;4.30;99.90;;;;;;5065413;28;20190;-71
2023/12/15 05:52:14;;;;;;;3.17;2.87;;;4.30;99.90;;;;;;5066820;28;20697;-73
2023/12/15 05:54:40;;;;;;;3.67;3.30;;;4.30;99.90;;;;;;5066587;28;20255;-73
2023/12/15 05:57:06;;;;;;;4.00;3.60;;;4.30;99.90;;;;;;5065324;28;20221;-72
2023/12/15 05:59:32;;;;;;;6.32;3.90;;;4.30;99.90;;;;;;5066951;28;20204;-73
2023/12/15 06:01:57;;;;;;;6.13;3.43;;;4.30;99.90;;;;;;5065131;28;20187;-72
2023/12/15 06:04:23;;;;;;;3.73;3.40;;;4.30;99.90;;;;;;5067036;28;20319;-73
2023/12/15 06:06:50;;;;;;;9.23;3.70;;;4.30;99.90;;;;;;5067816;28;20249;-72
2023/12/15 06:09:16;;;;;;;5.80;4.50;;;4.40;99.90;;;;;;5068390;28;20417;-73
2023/12/15 06:11:42;;;;;;;9.37;8.37;;;4.40;99.90;;;;;;5070003;28;20417;-72
2023/12/15 06:14:08;;;;;;;6.23;3.60;;;4.40;99.90;;;;;;5069988;28;20783;-72
2023/12/15 06:16:34;;;;;;;5.50;3.23;;;4.40;99.90;;;;;;5068349;28;20535;-72
2023/12/15 06:19:00;;;;;;;3.57;2.93;;;4.40;99.90;;;;;;5068602;28;21013;-72
2023/12/15 06:21:27;;;;;;;4.03;3.40;;;4.40;99.90;;;;;;5070059;28;20427;-72
2023/12/15 06:23:54;;;;;;;3.00;2.70;;;4.40;99.90;;;;;;5070108;28;20190;-72
2023/12/15 06:26:24;;;;;;;4.57;3.40;;;4.40;99.90;;;;;;5069839;28;20471;-73
2023/12/15 06:28:51;;;;;;;3.70;3.00;;;4.40;99.90;;;;;;5068398;28;20416;-73
2023/12/15 06:31:17;;;;;;;3.72;2.70;;;4.40;99.90;;;;;;5069586;28;20423;-72
2023/12/15 06:33:42;;;;;;;3.47;2.60;;;4.40;99.90;;;;;;5068029;28;20220;-72
2023/12/15 06:36:10;;;;;;;3.40;2.67;;;4.40;99.90;;;;;;5067920;28;21262;-72
2023/12/15 06:38:36;;;;;;;3.40;3.10;;;4.40;99.90;;;;;;5068023;28;20732;-72
2023/12/15 06:41:04;;;;;;;5.73;3.63;;;4.40;99.90;;;;;;5069569;28;20197;-73
2023/12/15 06:43:30;;;;;;;5.17;3.60;;;4.40;99.90;;;;;;5067778;28;20428;-73
2023/12/15 06:45:55;;;;;;;4.03;3.43;;;4.30;99.90;;;;;;5068030;28;20472;-72
2023/12/15 06:48:21;;;;;;;4.40;4.00;;;4.40;99.90;;;;;;5069809;28;20605;-73
2023/12/15 06:50:46;;;;;;;5.00;3.60;;;4.40;99.90;;;;;;5068271;28;20314;-72
2023/12/15 06:53:12;;;;;;;5.33;3.80;;;4.40;99.90;;;;;;5070015;28;20565;-72
2023/12/15 06:55:38;;;;;;;4.93;3.60;;;4.30;99.90;;;;;;5069933;28;20874;-72
2023/12/15 06:58:04;;;;;;;6.38;3.67;;;4.40;99.90;;;;;;5051818;28;20234;-72
2023/12/15 07:00:31;;;;;;;5.73;4.70;;;4.40;99.90;;;;;;5069872;28;20194;-72
2023/12/15 07:02:56;;;;;;;7.10;4.13;;;4.40;99.90;;;;;;5070036;28;20207;-72
2023/12/15 07:05:22;;;;;;;4.40;3.33;;;4.30;99.90;;;;;;5068428;28;20194;-72
2023/12/15 07:07:47;;;;;;;4.70;3.87;;;4.30;99.90;;;;;;5069606;28;20244;-72
2023/12/15 07:10:13;;;;;;;5.20;4.53;;;4.30;99.90;;;;;;5069627;28;20191;-72
2023/12/15 07:12:39;;;;;;;6.13;4.70;;;4.30;99.90;;;;;;5069601;28;20724;-73
2023/12/15 07:15:05;;;;;;;7.43;4.43;;;4.40;99.90;;;;;;5069440;28;20189;-72
2023/12/15 07:17:31;;;;;;;4.45;3.90;;;4.40;99.90;;;;;;5069645;28;20296;-72
2023/12/15 07:19:56;;;;;;;5.70;4.70;;;4.40;99.90;;;;;;5068182;28;20261;-73
2023/12/15 07:22:22;;;;;;;8.57;4.90;;;4.40;99.90;;;;;;5069493;28;20565;-73
2023/12/15 07:24:47;;;;;;;6.23;5.17;;;4.50;99.90;;;;;;5067936;28;20186;-73
2023/12/15 07:27:13;;;;;;;6.83;4.63;;;4.50;99.90;;;;;;5069298;28;20237;-73
2023/12/15 07:29:40;;;;;;;7.53;5.87;;;4.40;99.90;;;;;;5069281;28;20185;-72
2023/12/15 07:32:06;;;;;;;5.83;5.23;;;4.40;99.90;;;;;;5068095;28;20538;-72
2023/12/15 07:34:31;;;;;;;11.07;5.97;;;4.40;99.90;;;;;;5067770;28;20543;-73
2023/12/15 07:36:57;;;;;;;8.90;5.60;;;4.50;99.90;;;;;;5067556;28;20291;-73
2023/12/15 07:39:22;;;;;;;7.23;5.27;;;4.50;99.90;;;;;;5067704;28;20191;-72
2023/12/15 07:41:48;;;;;;;5.30;4.50;;;4.40;99.90;;;;;;5069173;28;20277;-73
2023/12/15 07:44:15;;;;;;;8.33;5.87;;;4.40;99.90;;;;;;5069091;28;20187;-72
2023/12/15 07:46:41;;;;;;;9.07;6.17;;;4.40;99.90;;;;;;5069081;28;20477;-73
2023/12/15 07:49:07;;;;;;;8.82;5.40;;;4.40;99.90;;;;;;5069159;28;20432;-72
2023/12/15 07:51:33;;;;;;;6.40;5.17;;;4.50;99.90;;;;;;5067521;28;20645;-72
2023/12/15 07:53:58;;;;;;;7.20;5.60;;;4.50;99.90;;;;;;5067393;28;20420;-72
2023/12/15 07:56:26;;;;;;;7.33;5.93;;;4.50;99.90;;;;;;5068905;28;20648;-71
2023/12/15 07:58:54;;;;;;;8.77;6.57;;;4.50;99.90;;;;;;5068747;28;20201;-73
2023/12/15 08:01:20;;;;;;;8.30;5.93;;;4.50;99.90;;;;;;5069487;28;20420;-73
2023/12/15 08:03:47;;;;;;;7.50;5.28;;;4.60;99.90;;;;;;5067494;28;20430;-73
2023/12/15 08:06:13;;;;;;;10.50;5.50;;;4.60;99.90;;;;;;5068489;28;20264;-73
2023/12/15 08:08:40;;;;;;;10.23;5.87;;;4.60;99.90;;;;;;5068915;28;20946;-72
2023/12/15 08:11:06;;;;;;;8.70;5.43;;;4.60;99.90;;;;;;5068880;28;20432;-73
2023/12/15 08:13:32;;;;;;;8.83;6.40;;;4.60;99.90;;;;;;5068685;28;20417;-72
2023/12/15 08:15:57;;;;;;;8.30;5.47;;;4.50;99.90;;;;;;5068664;28;20219;-72
2023/12/15 08:18:23;;;;;;;12.20;4.90;;;4.50;99.90;;;;;;5068343;28;20483;-73
2023/12/15 08:20:50;;;;;;;6.60;5.50;;;4.50;99.90;;;;;;5068989;28;20194;-71
2023/12/15 08:23:15;;;;;;;8.32;6.03;;;4.60;99.90;;;;;;5068893;28;20687;-71
2023/12/15 08:25:41;;;;;;;8.70;5.77;;;4.60;99.90;;;;;;5068620;28;20197;-71
2023/12/15 08:28:09;;;;;;;10.20;6.43;;;4.60;99.90;;;;;;5068239;28;20237;-72
2023/12/15 08:30:35;;;;;;;9.37;5.87;;;4.70;99.90;;;;;;5068559;28;20181;-73
2023/12/15 08:33:01;;;;;;;6.13;4.50;;;4.80;99.90;;;;;;5066873;28;20440;-73
2023/12/15 08:35:27;;;;;;;8.97;5.33;;;4.80;99.90;;;;;;5066919;28;20424;-72
2023/12/15 08:37:54;;;;;;;6.07;5.00;;;4.80;99.90;;;;;;5067961;28;20210;-72
2023/12/15 08:40:20;;;;;;;11.13;7.07;;;4.80;99.90;;;;;;5066573;28;20946;-72
2023/12/15 08:42:46;;;;;;;9.80;6.00;;;4.80;99.90;;;;;;5066540;28;20470;-71
2023/12/15 08:45:11;;;;;;;6.83;5.90;;;4.70;99.90;;;;;;5067898;28;20438;-71
2023/12/15 08:47:37;;;;;;;9.73;6.17;;;4.70;99.90;;;;;;5067744;28;20700;-72
2023/12/15 08:50:04;;;;;;;7.80;5.13;;;4.80;99.90;;;;;;5066551;28;20555;-72
2023/12/15 08:52:29;;;;;;;9.83;6.10;;;4.80;99.90;;;;;;5068002;28;20190;-73
2023/12/15 08:54:55;;;;;;;7.20;5.30;;;4.90;99.90;;;;;;5067871;28;20943;-72
2023/12/15 08:57:21;;;;;;;11.70;6.03;;;5.00;99.90;;;;;;5066811;28;20202;-73
2023/12/15 08:59:47;;;;;;;8.90;6.27;;;5.00;99.90;;;;;;5068489;28;20431;-73
2023/12/15 09:02:12;;;;;;;6.40;5.00;;;5.00;99.90;;;;;;5068670;28;21017;-73
2023/12/15 09:04:38;;;;;;;8.03;5.93;;;5.10;99.90;;;;;;5068452;28;20214;-72
2023/12/15 09:07:07;;;;;;;7.10;5.33;;;5.00;99.90;;;;;;5068009;28;20275;-72
2023/12/15 09:09:34;;;;;;;7.35;5.40;;;5.10;99.90;;;;;;5066682;28;20652;-71
2023/12/15 09:12:00;;;;;;;7.73;5.57;;;5.10;99.90;;;;;;5068104;28;20186;-71
2023/12/15 09:14:26;;;;;;;10.90;6.53;;;5.10;99.90;;;;;;5068856;28;20412;-71
2023/12/15 09:16:52;;;;;;;10.13;7.00;;;5.20;99.90;;;;;;5066824;28;20929;-73
2023/12/15 09:19:17;;;;;;;13.20;7.73;;;5.20;99.90;;;;;;5066218;28;20434;-73
2023/12/15 09:21:43;;;;;;;19.27;10.63;;;5.20;99.90;;;;;;5067787;28;20237;-73
2023/12/15 09:24:09;;;;;;;17.87;6.30;;;5.30;99.90;;;;;;5033281;28;20187;-71
2023/12/15 09:26:35;;;;;;;7.17;5.43;;;5.40;99.90;;;;;;5066565;28;20210;-73
2023/12/15 09:29:00;;;;;;;8.37;5.60;;;5.30;99.90;;;;;;5068087;28;20980;-72
2023/12/15 09:31:26;;;;;;;8.67;5.57;;;5.30;99.90;;;;;;5066693;28;20183;-73
2023/12/15 09:33:52;;;;;;;9.43;5.80;;;5.30;99.90;;;;;;5067960;28;20179;-71
2023/12/15 09:36:17;;;;;;;6.83;5.47;;;5.40;99.90;;;;;;5066064;28;20221;-71
2023/12/15 09:38:43;;;;;;;9.83;6.30;;;5.30;99.90;;;;;;5067912;28;20292;-73
2023/12/15 09:41:09;;;;;;;8.67;5.60;;;5.30;99.90;;;;;;5069722;28;20190;-73
2023/12/15 09:43:35;;;;;;;12.30;5.80;;;5.30;99.90;;;;;;5071132;28;20201;-73
2023/12/15 09:46:03;;;;;;;7.03;5.60;;;5.30;99.90;;;;;;5069230;28;20209;-73
2023/12/15 09:48:29;;;;;;;11.70;6.83;;;5.40;99.90;;;;;;5070715;28;20441;-72
2023/12/15 09:50:56;;;;;;;7.20;5.63;;;5.50;99.90;;;;;;5070694;28;20939;-73
2023/12/15 09:53:22;;;;;;;12.73;5.30;;;5.50;99.90;;;;;;5070903;28;20183;-73
2023/12/15 09:55:51;;;;;;;13.70;6.70;;;5.40;99.90;;;;;;5052679;28;20440;-73
2023/12/15 09:58:18;;;;;;;12.73;7.43;;;5.60;99.90;;;;;;5069931;28;20439;-73
2023/12/15 10:00:43;;;;;;;9.10;6.00;;;5.70;99.90;;;;;;5069504;28;20187;-73
2023/12/15 10:03:09;;;;;;;11.10;6.70;;;5.70;99.90;;;;;;5052596;28;20434;-73
2023/12/15 10:05:35;;;;;;;9.67;7.13;;;5.90;99.90;;;;;;5068968;28;20672;-72
2023/12/15 10:08:01;;;;;;;7.33;5.17;;;5.90;99.90;;;;;;5070722;28;20194;-72
2023/12/15 10:10:26;;;;;;;7.23;4.20;;;5.70;99.90;;;;;;5069355;28;20415;-72
2023/12/15 10:12:55;;;;;;;8.30;5.50;;;5.50;99.90;;;;;;5070350;28;20179;-72
2023/12/15 10:15:21;;;;;;;8.73;5.80;;;5.50;99.90;;;;;;5068851;28;20175;-72
2023/12/15 10:17:49;;;;;;;8.47;5.27;;;5.50;99.90;;;;;;5068594;28;20448;-72
2023/12/15 10:20:16;;;;;;;6.90;5.30;;;5.40;99.90;;;;;;5069655;28;20896;-73
2023/12/15 10:22:42;;;;;;;10.20;4.60;;;5.40;99.90;;;;;;5069782;28;20421;-72
2023/12/15 10:25:23;;;;;;;7.63;5.40;;;5.40;99.90;;;;;;5051710;28;20495;-72
2023/12/15 10:27:50;;;;;;;5.23;4.73;;;5.40;99.90;;;;;;5069605;28;20240;-72
2023/12/15 10:30:20;;;;;;;6.07;4.83;;;5.50;99.90;;;;;;5069633;28;20417;-73
2023/12/15 10:32:45;;;;;;;7.20;4.50;;;5.60;99.90;;;;;;5068028;28;20456;-72
2023/12/15 10:35:12;;;;;;;4.77;4.10;;;5.70;99.90;;;;;;5069568;28;20442;-72
2023/12/15 10:37:38;;;;;;;5.40;4.90;;;5.80;99.90;;;;;;5067845;28;20436;-72
2023/12/15 10:40:05;;;;;;;5.30;4.73;;;5.90;99.90;;;;;;5068034;28;20427;-72
2023/12/15 10:42:31;;;;;;;5.20;4.30;;;6.00;99.90;;;;;;5069794;28;20436;-72
2023/12/15 10:45:03;;;;;;;7.15;4.40;;;6.00;99.90;;;;;;5069415;28;21361;-72
2023/12/15 10:47:30;;;;;;;7.90;5.23;;;6.00;99.90;;;;;;5069326;28;20245;-72
2023/12/15 10:49:58;;;;;;;6.60;4.73;;;6.00;99.90;;;;;;5051200;28;20436;-72
2023/12/15 10:52:24;;;;;;;6.50;4.47;;;6.00;99.90;;;;;;5067798;28;20448;-72
2023/12/15 10:54:52;;;;;;;6.90;5.17;;;6.00;99.90;;;;;;5067928;28;20443;-72
2023/12/15 10:57:19;;;;;;;6.73;5.40;;;5.90;99.90;;;;;;5051317;28;20758;-73
2023/12/15 10:59:45;;;;;;;5.40;4.57;;;5.90;99.90;;;;;;5068586;28;20422;-71
2023/12/15 11:02:17;;;;;;;6.50;4.80;;;6.00;99.90;;;;;;5068454;28;20479;-73
2023/12/15 11:04:43;;;;;;;6.93;4.60;;;6.10;99.90;;;;;;5067776;28;20961;-72
2023/12/15 11:07:09;;;;;;;5.00;4.30;;;6.10;99.90;;;;;;5069094;28;20480;-72
2023/12/15 11:09:36;;;;;;;7.33;4.03;;;6.30;99.90;;;;;;5068948;28;20579;-73
2023/12/15 11:12:31;;;;;;;8.60;5.47;;;6.30;99.90;;;;;;5067721;28;20512;-73
2023/12/15 11:14:58;;;;;;;6.47;5.03;;;6.40;99.90;;;;;;5069225;28;20413;-73
2023/12/15 11:17:25;;;;;;;7.47;5.17;;;6.50;99.90;;;;;;5068617;28;20812;-73
2023/12/15 11:19:56;;;;;;;6.27;5.00;;;6.70;99.90;;;;;;5067044;28;20459;-72
2023/12/15 11:22:21;;;;;;;6.80;5.20;;;6.50;99.90;;;;;;5069027;28;20834;-72
2023/12/15 11:24:47;;;;;;;6.60;5.17;;;6.50;99.90;;;;;;5068444;28;20474;-72
2023/12/15 11:27:13;;;;;;;9.73;6.83;;;6.50;99.90;;;;;;5066865;28;20211;-72
2023/12/15 11:29:40;;;;;;;8.80;7.13;;;6.60;99.90;;;;;;5068503;28;20425;-73
2023/12/15 11:32:28;;;;;;;9.40;7.03;;;6.60;99.90;;;;;;5068317;28;20948;-71
2023/12/15 11:34:53;;;;;;;7.90;5.80;;;6.50;99.90;;;;;;5068228;28;20896;-73
2023/12/15 11:37:20;;;;;;;10.20;8.10;;;6.60;99.90;;;;;;5069027;28;20454;-73
2023/12/15 11:39:49;;;;;;;8.03;5.53;;;6.60;99.90;;;;;;5068567;28;20191;-73
2023/12/15 11:42:15;;;;;;;7.03;6.27;;;6.70;99.90;;;;;;5068295;28;20426;-73
2023/12/15 11:44:44;;;;;;;7.50;5.60;;;6.90;99.90;;;;;;5068130;28;20456;-73
2023/12/15 11:47:11;;;;;;;7.63;5.50;;;6.90;99.90;;;;;;5068151;28;20510;-73
2023/12/15 11:49:42;;;;;;;7.73;5.40;;;6.80;99.90;;;;;;5066461;28;20421;-72
2023/12/15 11:52:10;;;;;;;6.77;5.07;;;6.80;99.90;;;;;;5068241;28;20432;-72
2023/12/15 11:54:37;;;;;;;8.90;5.80;;;6.90;99.90;;;;;;5067660;28;20453;-71
2023/12/15 11:57:05;;;;;;;7.23;5.57;;;6.90;99.90;;;;;;5066612;28;20906;-73
2023/12/15 11:59:35;;;;;;;7.90;5.23;;;7.00;99.90;;;;;;5066536;28;20512;-73
2023/12/15 12:02:01;;;;;;;7.10;5.67;;;7.00;99.90;;;;;;5066429;28;20433;-73
2023/12/15 12:04:29;;;;;;;5.73;4.90;;;7.10;99.90;;;;;;5065545;28;20440;-73
2023/12/15 12:06:55;;;;;;;10.30;5.43;;;7.10;99.90;;;;;;5067727;28;20244;-72
2023/12/15 12:09:22;;;;;;;6.67;5.00;;;7.00;99.90;;;;;;5067629;28;20422;-72
2023/12/15 12:11:48;;;;;;;9.80;4.80;;;7.10;99.90;;;;;;5067812;28;20573;-72
2023/12/15 12:14:14;;;;;;;8.03;5.60;;;7.00;99.90;;;;;;5067505;28;20432;-73
2023/12/15 12:16:40;;;;;;;5.70;4.30;;;7.00;99.90;;;;;;5067307;28;20544;-71
2023/12/15 12:19:05;;;;;;;7.80;4.50;;;7.10;99.90;;;;;;5049429;28;20508;-73
2023/12/15 12:21:32;;;;;;;10.87;5.00;;;7.20;99.90;;;;;;5067516;28;20187;-72
2023/12/15 12:23:59;;;;;;;6.30;4.63;;;7.30;99.90;;;;;;5067378;28;20183;-72
2023/12/15 12:26:26;;;;;;;9.03;4.80;;;7.40;99.90;;;;;;5065746;28;22490;-72
2023/12/15 12:28:53;;;;;;;5.90;4.33;;;7.50;99.90;;;;;;5067599;28;20456;-72
2023/12/15 12:31:19;;;;;;;6.87;4.80;;;7.50;99.90;;;;;;5066301;28;20504;-72
2023/12/15 12:33:45;;;;;;;6.53;5.27;;;7.60;99.90;;;;;;5065794;28;20429;-72
2023/12/15 12:36:10;;;;;;;7.03;5.00;;;7.60;99.90;;;;;;5067410;28;20422;-72
2023/12/15 12:38:36;;;;;;;7.37;5.10;;;7.70;99.90;;;;;;5066280;28;20513;-72
2023/12/15 12:41:06;;;;;;;5.20;4.70;;;7.60;99.90;;;;;;5067521;28;20557;-72
2023/12/15 12:43:32;;;;;;;5.90;5.30;;;7.60;99.90;;;;;;5065841;28;20459;-73
2023/12/15 12:45:58;;;;;;;5.10;4.60;;;7.60;99.90;;;;;;5067447;28;20446;-72
2023/12/15 12:48:24;;;;;;;8.43;5.40;;;7.60;99.90;;;;;;5065538;28;20938;-74
2023/12/15 12:50:50;;;;;;;5.43;4.63;;;7.60;99.90;;;;;;5067200;28;20417;-73